Vernon, Illinois
Current Conditions -  °F | °C
As of 10:55 PM on Sunday 21 Dec 2014 (Local Time) from KSLO Reporting Station
Overcast Overcast  
Wind Chill: 33°   Ceiling: 10000
Heat Index: 38°   Visibility: 10mi
Dew Point: 31°   Wind: 7mph
Humidity: 75%   Direction: 120°ESE
Pressure: 30"   Gusts: NA
Location:  38.8°N, 89.09°W
Report Text: KSLO 220455Z AUTO 12006KT 10SM SCT070 SCT080 OVC100 04/00 A3000 RMK AO2 T00361005
Loading
Personal Weather Stations






























Interactive Weather Map New forecast layout! Learn more

10-Day Weather Forecast

Advertisements
Track Severe Weather on mobile